Muskrat Dam Airport
CZMD : now visible

Airfield :











YOU CAN JOIN US ON...

 
LOGIN :

Register | Disclaimer

   EN    FR    IT 

 









Legend :    VFR   Marginal VFR   IFR   Intensive IFR   Very Intensive IFR
Visi :
Ceiling :
>= 8 km
>= 3000ft
5 to 8 km
1000 to 3000 ft
1500m to 5 km
500 to 1000 ft
800 to 1500m
200 to 500 ft
< 800m
< 200 ft
Symbols :   Thunderstorms  Fog  Heavy snow  Heavy precipitations  Wind > 20 kt







- Airport Elevation : 911 ft
- IATA code : MSA


CZMD - Muskrat Dam

CURRENT METAR :
  • 160500Z AUTO 22003KT 1 3/4SM BR FEW045 11/11 A2987 RMK SLP124

EXPIRED METARs :
  • 160400Z AUTO 22003KT 2 1/4SM BR CLR 12/12 A2986 RMK VIS VRB 3/4-3 SLP120
  • 160300Z AUTO VRB02KT 3SM BR FEW042 13/13 A2984 RMK SLP114

Expired Forecast.
No reported NOTAMs for that airfield.



MET'MAP, your aeronautical weather chart ! - Copyright ORBIFLY December 2007 - Disclaimer

ORBIFLY MET'MAP TEAM :

Programming & Development : Alexandra Zaïnal
Concept & Development : Baudouin d'Aumeries
Co-Development & Prog : Marc-Olivier Méhu
Technical & hardware support : Manuel Goepfert

Contact : metmap@orbifly.com




SOURCES & CREDITS :

   NOAA       Earth
Advisory